sensor_id;sensor_type;location;lat;lon;timestamp;pressure;altitude;pressure_sealevel;temperature;humidity
54308;BME280;40208;39.778;2.710;2023-02-10T00:01:10;103366.38;;;6.04;100.00
54308;BME280;40208;39.778;2.710;2023-02-10T00:03:55;103368.97;;;6.02;100.00
54308;BME280;40208;39.778;2.710;2023-02-10T00:06:40;103363.81;;;6.08;100.00
54308;BME280;40208;39.778;2.710;2023-02-10T00:09:25;103363.78;;;6.07;100.00
54308;BME280;40208;39.778;2.710;2023-02-10T00:12:10;103359.38;;;6.06;100.00
54308;BME280;40208;39.778;2.710;2023-02-10T00:14:56;103366.41;;;6.05;100.00
54308;BME280;40208;39.778;2.710;2023-02-10T00:17:40;103355.88;;;6.05;100.00
54308;BME280;40208;39.778;2.710;2023-02-10T00:20:25;103373.38;;;6.02;100.00
54308;BME280;40208;39.778;2.710;2023-02-10T00:23:09;103368.06;;;5.99;100.00
54308;BME280;40208;39.778;2.710;2023-02-10T00:25:54;103372.44;;;6.00;100.00
54308;BME280;40208;39.778;2.710;2023-02-10T00:28:39;103358.34;;;5.96;100.00
54308;BME280;40208;39.778;2.710;2023-02-10T00:31:24;103367.97;;;5.94;100.00
54308;BME280;40208;39.778;2.710;2023-02-10T00:34:13;103375.06;;;5.97;100.00
54308;BME280;40208;39.778;2.710;2023-02-10T00:36:58;103371.44;;;5.93;100.00
54308;BME280;40208;39.778;2.710;2023-02-10T00:39:43;103367.84;;;5.88;100.00
54308;BME280;40208;39.778;2.710;2023-02-10T00:42:29;103362.56;;;5.86;100.00
54308;BME280;40208;39.778;2.710;2023-02-10T00:45:14;103358.19;;;5.87;100.00
54308;BME280;40208;39.778;2.710;2023-02-10T00:47:59;103358.13;;;5.84;100.00
54308;BME280;40208;39.778;2.710;2023-02-10T00:50:44;103363.44;;;5.88;100.00
54308;BME280;40208;39.778;2.710;2023-02-10T00:53:29;103359.00;;;5.84;100.00
54308;BME280;40208;39.778;2.710;2023-02-10T00:56:14;103366.25;;;5.96;100.00
54308;BME280;40208;39.778;2.710;2023-02-10T00:58:58;103359.97;;;5.89;100.00
54308;BME280;40208;39.778;2.710;2023-02-10T01:01:43;103353.75;;;5.84;100.00
54308;BME280;40208;39.778;2.710;2023-02-10T01:04:28;103357.38;;;5.92;100.00
54308;BME280;40208;39.778;2.710;2023-02-10T01:07:13;103352.09;;;5.91;100.00
54308;BME280;40208;39.778;2.710;2023-02-10T01:09:58;103352.91;;;5.87;100.00
54308;BME280;40208;39.778;2.710;2023-02-10T01:12:42;103345.91;;;5.90;100.00
54308;BME280;40208;39.778;2.710;2023-02-10T01:15:27;103335.28;;;5.86;100.00
54308;BME280;40208;39.778;2.710;2023-02-10T01:18:12;103334.38;;;5.82;100.00
54308;BME280;40208;39.778;2.710;2023-02-10T01:20:57;103332.44;;;5.70;100.00
54308;BME280;40208;39.778;2.710;2023-02-10T01:23:42;103336.00;;;5.74;100.00
54308;BME280;40208;39.778;2.710;2023-02-10T01:26:26;103339.34;;;5.64;100.00
54308;BME280;40208;39.778;2.710;2023-02-10T01:29:11;103345.56;;;5.67;100.00
54308;BME280;40208;39.778;2.710;2023-02-10T01:31:56;103344.50;;;5.56;100.00
54308;BME280;40208;39.778;2.710;2023-02-10T01:34:41;103340.97;;;5.57;100.00
54308;BME280;40208;39.778;2.710;2023-02-10T01:37:26;103354.91;;;5.48;100.00
54308;BME280;40208;39.778;2.710;2023-02-10T01:40:11;103359.34;;;5.52;100.00
54308;BME280;40208;39.778;2.710;2023-02-10T01:42:55;103352.41;;;5.56;100.00
54308;BME280;40208;39.778;2.710;2023-02-10T01:45:40;103356.78;;;5.57;100.00
54308;BME280;40208;39.778;2.710;2023-02-10T01:48:25;103363.94;;;5.63;100.00
54308;BME280;40208;39.778;2.710;2023-02-10T01:51:10;103362.25;;;5.69;100.00
54308;BME280;40208;39.778;2.710;2023-02-10T01:53:56;103356.09;;;5.69;100.00
54308;BME280;40208;39.778;2.710;2023-02-10T01:56:41;103350.00;;;5.71;100.00
54308;BME280;40208;39.778;2.710;2023-02-10T01:59:26;103349.28;;;5.80;100.00
54308;BME280;40208;39.778;2.710;2023-02-10T02:02:12;103356.25;;;5.77;100.00
54308;BME280;40208;39.778;2.710;2023-02-10T02:04:59;103346.69;;;5.83;100.00
54308;BME280;40208;39.778;2.710;2023-02-10T02:07:43;103348.44;;;5.83;100.00
54308;BME280;40208;39.778;2.710;2023-02-10T02:10:35;103350.16;;;5.81;100.00
54308;BME280;40208;39.778;2.710;2023-02-10T02:24:58;103357.44;;;5.95;100.00
54308;BME280;40208;39.778;2.710;2023-02-10T02:30:45;103346.09;;;6.00;100.00
54308;BME280;40208;39.778;2.710;2023-02-10T02:33:36;103353.22;;;6.07;100.00
54308;BME280;40208;39.778;2.710;2023-02-10T02:36:27;103340.97;;;6.09;100.00
54308;BME280;40208;39.778;2.710;2023-02-10T02:39:14;103340.97;;;6.09;100.00
54308;BME280;40208;39.778;2.710;2023-02-10T02:42:17;103340.97;;;6.09;100.00
54308;BME280;40208;39.778;2.710;2023-02-10T02:45:12;103323.44;;;6.14;100.00
54308;BME280;40208;39.778;2.710;2023-02-10T02:48:09;103319.97;;;6.15;100.00
54308;BME280;40208;39.778;2.710;2023-02-10T02:51:09;103325.25;;;6.15;100.00
54308;BME280;40208;39.778;2.710;2023-02-10T02:54:18;103315.53;;;6.12;100.00
54308;BME280;40208;39.778;2.710;2023-02-10T03:02:35;103321.84;;;6.25;100.00
54308;BME280;40208;39.778;2.710;2023-02-10T03:05:22;103336.88;;;6.31;100.00
54308;BME280;40208;39.778;2.710;2023-02-10T03:08:08;103327.22;;;6.31;100.00
54308;BME280;40208;39.778;2.710;2023-02-10T03:10:53;103311.50;;;6.41;100.00
54308;BME280;40208;39.778;2.710;2023-02-10T03:13:37;103316.97;;;6.56;100.00
54308;BME280;40208;39.778;2.710;2023-02-10T03:16:22;103309.31;;;6.77;100.00
54308;BME280;40208;39.778;2.710;2023-02-10T03:19:07;103309.44;;;6.90;100.00
54308;BME280;40208;39.778;2.710;2023-02-10T03:21:52;103305.09;;;6.95;100.00
54308;BME280;40208;39.778;2.710;2023-02-10T03:24:37;103312.25;;;7.07;100.00
54308;BME280;40208;39.778;2.710;2023-02-10T03:27:22;103309.72;;;7.16;100.00
54308;BME280;40208;39.778;2.710;2023-02-10T03:30:06;103315.09;;;7.28;100.00
54308;BME280;40208;39.778;2.710;2023-02-10T03:32:51;103314.31;;;7.37;100.00
54308;BME280;40208;39.778;2.710;2023-02-10T03:35:37;103316.06;;;7.35;100.00
54308;BME280;40208;39.778;2.710;2023-02-10T03:38:24;103310.78;;;7.35;100.00
54308;BME280;40208;39.778;2.710;2023-02-10T03:41:09;103325.88;;;7.45;100.00
54308;BME280;40208;39.778;2.710;2023-02-10T03:43:54;103330.41;;;7.64;100.00
54308;BME280;40208;39.778;2.710;2023-02-10T03:46:38;103359.72;;;7.97;100.00
54308;BME280;40208;39.778;2.710;2023-02-10T03:49:23;103360.63;;;7.97;100.00
54308;BME280;40208;39.778;2.710;2023-02-10T03:52:07;103368.50;;;7.90;100.00
54308;BME280;40208;39.778;2.710;2023-02-10T03:54:52;103383.56;;;7.98;100.00
54308;BME280;40208;39.778;2.710;2023-02-10T03:57:37;103391.50;;;8.00;100.00
54308;BME280;40208;39.778;2.710;2023-02-10T04:00:22;103385.28;;;7.96;100.00
54308;BME280;40208;39.778;2.710;2023-02-10T04:03:06;103370.19;;;7.80;100.00
54308;BME280;40208;39.778;2.710;2023-02-10T04:05:51;103362.22;;;7.74;100.00
54308;BME280;40208;39.778;2.710;2023-02-10T04:08:36;103361.25;;;7.64;100.00
54308;BME280;40208;39.778;2.710;2023-02-10T04:11:21;103360.34;;;7.60;100.00
54308;BME280;40208;39.778;2.710;2023-02-10T04:14:06;103356.78;;;7.55;100.00
54308;BME280;40208;39.778;2.710;2023-02-10T04:16:50;103359.38;;;7.51;100.00
54308;BME280;40208;39.778;2.710;2023-02-10T04:19:35;103361.97;;;7.49;100.00
54308;BME280;40208;39.778;2.710;2023-02-10T04:22:20;103362.13;;;7.64;100.00
54308;BME280;40208;39.778;2.710;2023-02-10T04:25:06;103358.50;;;7.50;100.00
54308;BME280;40208;39.778;2.710;2023-02-10T04:27:50;103360.97;;;7.33;100.00
54308;BME280;40208;39.778;2.710;2023-02-10T04:30:35;103362.63;;;7.25;100.00
54308;BME280;40208;39.778;2.710;2023-02-10T04:33:20;103356.31;;;7.09;100.00
54308;BME280;40208;39.778;2.710;2023-02-10T04:36:05;103352.75;;;7.06;100.00
54308;BME280;40208;39.778;2.710;2023-02-10T04:38:50;103355.34;;;7.01;100.00
54308;BME280;40208;39.778;2.710;2023-02-10T04:41:35;103362.34;;;6.99;100.00
54308;BME280;40208;39.778;2.710;2023-02-10T04:44:19;103363.25;;;6.99;100.00
54308;BME280;40208;39.778;2.710;2023-02-10T04:47:04;103363.28;;;7.04;100.00
54308;BME280;40208;39.778;2.710;2023-02-10T04:49:49;103363.22;;;6.96;100.00
54308;BME280;40208;39.778;2.710;2023-02-10T04:52:34;103365.84;;;6.96;100.00
54308;BME280;40208;39.778;2.710;2023-02-10T04:55:18;103365.94;;;7.03;100.00
54308;BME280;40208;39.778;2.710;2023-02-10T04:58:03;103372.25;;;7.17;100.00
54308;BME280;40208;39.778;2.710;2023-02-10T05:00:48;103361.69;;;7.18;100.00
54308;BME280;40208;39.778;2.710;2023-02-10T05:03:33;103364.25;;;7.11;100.00
54308;BME280;40208;39.778;2.710;2023-02-10T05:06:17;103364.09;;;6.97;100.00
54308;BME280;40208;39.778;2.710;2023-02-10T05:09:02;103368.53;;;7.01;100.00
54308;BME280;40208;39.778;2.710;2023-02-10T05:11:47;103366.81;;;7.03;100.00
54308;BME280;40208;39.778;2.710;2023-02-10T05:14:32;103363.19;;;6.95;100.00
54308;BME280;40208;39.778;2.710;2023-02-10T05:17:17;103367.59;;;6.94;100.00
54308;BME280;40208;39.778;2.710;2023-02-10T05:20:02;103363.06;;;6.86;100.00
54308;BME280;40208;39.778;2.710;2023-02-10T05:22:47;103370.97;;;6.81;100.00
54308;BME280;40208;39.778;2.710;2023-02-10T05:25:32;103363.88;;;6.78;100.00
54308;BME280;40208;39.778;2.710;2023-02-10T05:28:17;103378.88;;;6.83;100.00
54308;BME280;40208;39.778;2.710;2023-02-10T05:31:02;103379.78;;;6.85;100.00
54308;BME280;40208;39.778;2.710;2023-02-10T05:33:49;103384.38;;;6.98;100.00
54308;BME280;40208;39.778;2.710;2023-02-10T05:36:33;103383.41;;;6.91;100.00
54308;BME280;40208;39.778;2.710;2023-02-10T05:39:18;103388.63;;;6.87;100.00
54308;BME280;40208;39.778;2.710;2023-02-10T05:42:10;103393.03;;;6.88;100.00
54308;BME280;40208;39.778;2.710;2023-02-10T05:44:54;103389.53;;;6.89;100.00
54308;BME280;40208;39.778;2.710;2023-02-10T05:47:39;103390.41;;;6.89;100.00
54308;BME280;40208;39.778;2.710;2023-02-10T05:50:24;103395.66;;;6.88;100.00
54308;BME280;40208;39.778;2.710;2023-02-10T05:53:09;103392.22;;;6.93;100.00
54308;BME280;40208;39.778;2.710;2023-02-10T05:55:54;103393.19;;;7.00;100.00
54308;BME280;40208;39.778;2.710;2023-02-10T05:58:39;103401.88;;;6.91;100.00
54308;BME280;40208;39.778;2.710;2023-02-10T06:01:24;103388.63;;;6.87;100.00
54308;BME280;40208;39.778;2.710;2023-02-10T06:04:09;103389.47;;;6.84;100.00
54308;BME280;40208;39.778;2.710;2023-02-10T06:06:54;103387.69;;;6.82;100.00
54308;BME280;40208;39.778;2.710;2023-02-10T06:09:38;103392.06;;;6.79;100.00
54308;BME280;40208;39.778;2.710;2023-02-10T06:12:26;103395.56;;;6.80;100.00
54308;BME280;40208;39.778;2.710;2023-02-10T06:15:10;103389.44;;;6.81;100.00
54308;BME280;40208;39.778;2.710;2023-02-10T06:17:55;103403.41;;;6.72;100.00
54308;BME280;40208;39.778;2.710;2023-02-10T06:20:40;103410.47;;;6.75;100.00
54308;BME280;40208;39.778;2.710;2023-02-10T06:23:25;103404.19;;;6.67;100.00
54308;BME280;40208;39.778;2.710;2023-02-10T06:26:11;103412.09;;;6.65;100.00
54308;BME280;40208;39.778;2.710;2023-02-10T06:28:55;103417.38;;;6.67;100.00
54308;BME280;40208;39.778;2.710;2023-02-10T06:31:40;103419.28;;;6.77;100.00
54308;BME280;40208;39.778;2.710;2023-02-10T06:34:25;103426.34;;;6.76;100.00
54308;BME280;40208;39.778;2.710;2023-02-10T06:37:10;103418.34;;;6.72;100.00
54308;BME280;40208;39.778;2.710;2023-02-10T06:39:54;103432.47;;;6.75;100.00
54308;BME280;40208;39.778;2.710;2023-02-10T06:42:39;103428.09;;;6.77;100.00
54308;BME280;40208;39.778;2.710;2023-02-10T06:45:24;103430.84;;;6.87;100.00
54308;BME280;40208;39.778;2.710;2023-02-10T06:48:09;103429.81;;;6.75;100.00
54308;BME280;40208;39.778;2.710;2023-02-10T06:50:53;103432.47;;;6.75;100.00
54308;BME280;40208;39.778;2.710;2023-02-10T06:53:38;103430.03;;;6.91;100.00
54308;BME280;40208;39.778;2.710;2023-02-10T06:56:23;103425.81;;;7.05;100.00
54308;BME280;40208;39.778;2.710;2023-02-10T06:59:08;103429.44;;;7.15;100.00
54308;BME280;40208;39.778;2.710;2023-02-10T07:01:53;103442.47;;;7.01;100.00
54308;BME280;40208;39.778;2.710;2023-02-10T07:04:44;103449.41;;;6.91;100.00
54308;BME280;40208;39.778;2.710;2023-02-10T07:07:29;103451.22;;;6.97;100.00
54308;BME280;40208;39.778;2.710;2023-02-10T07:10:13;103460.00;;;6.94;100.00
54308;BME280;40208;39.778;2.710;2023-02-10T07:12:58;103464.44;;;6.98;100.00
54308;BME280;40208;39.778;2.710;2023-02-10T07:15:43;103465.28;;;6.93;100.00
54308;BME280;40208;39.778;2.710;2023-02-10T07:18:28;103478.47;;;6.94;100.00
54308;BME280;40208;39.778;2.710;2023-02-10T07:21:14;103477.59;;;6.94;100.00
54308;BME280;40208;39.778;2.710;2023-02-10T07:23:59;103486.34;;;6.91;100.00
54308;BME280;40208;39.778;2.710;2023-02-10T07:26:45;103495.03;;;6.83;100.00
54308;BME280;40208;39.778;2.710;2023-02-10T07:29:30;103496.00;;;6.89;100.00
54308;BME280;40208;39.778;2.710;2023-02-10T07:32:15;103489.91;;;6.95;100.00
54308;BME280;40208;39.778;2.710;2023-02-10T07:34:59;103488.25;;;7.00;100.00
54308;BME280;40208;39.778;2.710;2023-02-10T07:37:44;103479.53;;;7.07;100.00
54308;BME280;40208;39.778;2.710;2023-02-10T07:40:29;103477.72;;;7.03;100.00
54308;BME280;40208;39.778;2.710;2023-02-10T07:43:14;103487.41;;;7.03;100.00
54308;BME280;40208;39.778;2.710;2023-02-10T07:45:59;103483.91;;;7.05;100.00
54308;BME280;40208;39.778;2.710;2023-02-10T07:48:44;103474.31;;;7.13;100.00
54308;BME280;40208;39.778;2.710;2023-02-10T07:51:29;103482.16;;;7.09;100.00
54308;BME280;40208;39.778;2.710;2023-02-10T07:54:14;103476.88;;;7.06;100.00
54308;BME280;40208;39.778;2.710;2023-02-10T07:56:58;103483.84;;;7.00;100.00
54308;BME280;40208;39.778;2.710;2023-02-10T07:59:43;103494.41;;;7.00;100.00
54308;BME280;40208;39.778;2.710;2023-02-10T08:02:28;103498.81;;;7.00;100.00
54308;BME280;40208;39.778;2.710;2023-02-10T08:05:13;103504.09;;;7.01;100.00
54308;BME280;40208;39.778;2.710;2023-02-10T08:07:58;103507.72;;;7.11;100.00
54308;BME280;40208;39.778;2.710;2023-02-10T08:10:43;103503.34;;;7.10;100.00
54308;BME280;40208;39.778;2.710;2023-02-10T08:13:28;103505.03;;;7.07;100.00
54308;BME280;40208;39.778;2.710;2023-02-10T08:16:13;103511.31;;;7.16;100.00
54308;BME280;40208;39.778;2.710;2023-02-10T08:18:58;103509.63;;;7.20;100.00
54308;BME280;40208;39.778;2.710;2023-02-10T08:21:43;103510.56;;;7.25;100.00
54308;BME280;40208;39.778;2.710;2023-02-10T08:24:29;103522.91;;;7.28;100.00
54308;BME280;40208;39.778;2.710;2023-02-10T08:27:14;103526.53;;;7.34;100.00
54308;BME280;40208;39.778;2.710;2023-02-10T08:29:59;103531.09;;;7.49;100.00
54308;BME280;40208;39.778;2.710;2023-02-10T08:32:43;103521.63;;;7.68;100.00
54308;BME280;40208;39.778;2.710;2023-02-10T08:35:28;103523.66;;;7.94;100.00
54308;BME280;40208;39.778;2.710;2023-02-10T08:38:13;103529.13;;;8.12;100.00
54308;BME280;40208;39.778;2.710;2023-02-10T08:40:58;103532.06;;;8.41;100.00
54308;BME280;40208;39.778;2.710;2023-02-10T08:43:43;103530.50;;;8.66;100.00
54308;BME280;40208;39.778;2.710;2023-02-10T08:46:28;103521.81;;;8.90;100.00
54308;BME280;40208;39.778;2.710;2023-02-10T08:49:13;103530.78;;;9.14;100.00
54308;BME280;40208;39.778;2.710;2023-02-10T08:51:58;103521.13;;;9.34;100.00
54308;BME280;40208;39.778;2.710;2023-02-10T08:54:44;103520.34;;;9.57;100.00
54308;BME280;40208;39.778;2.710;2023-02-10T08:57:29;103516.88;;;9.86;100.00
54308;BME280;40208;39.778;2.710;2023-02-10T09:00:14;103508.97;;;10.12;100.00
54308;BME280;40208;39.778;2.710;2023-02-10T09:02:59;103516.06;;;10.28;100.00
54308;BME280;40208;39.778;2.710;2023-02-10T09:05:43;103518.72;;;10.45;100.00
54308;BME280;40208;39.778;2.710;2023-02-10T09:08:29;103514.28;;;10.53;100.00
54308;BME280;40208;39.778;2.710;2023-02-10T09:11:15;103512.50;;;10.61;100.00
54308;BME280;40208;39.778;2.710;2023-02-10T09:13:59;103520.47;;;10.65;100.00
54308;BME280;40208;39.778;2.710;2023-02-10T09:16:44;103517.81;;;10.71;100.00
54308;BME280;40208;39.778;2.710;2023-02-10T09:19:29;103522.22;;;10.73;100.00
54308;BME280;40208;39.778;2.710;2023-02-10T09:22:14;103520.44;;;10.74;100.00
54308;BME280;40208;39.778;2.710;2023-02-10T09:25:00;103531.06;;;10.77;100.00
54308;BME280;40208;39.778;2.710;2023-02-10T09:27:46;103523.09;;;10.81;100.00
54308;BME280;40208;39.778;2.710;2023-02-10T09:30:31;103523.94;;;10.87;100.00
54308;BME280;40208;39.778;2.710;2023-02-10T09:33:16;103525.72;;;11.01;100.00
54308;BME280;40208;39.778;2.710;2023-02-10T09:36:04;103530.16;;;10.99;100.00
54308;BME280;40208;39.778;2.710;2023-02-10T09:38:49;103532.81;;;10.99;100.00
54308;BME280;40208;39.778;2.710;2023-02-10T09:44:20;103525.69;;;11.15;100.00
54308;BME280;40208;39.778;2.710;2023-02-10T09:47:16;103514.97;;;11.29;100.00
54308;BME280;40208;39.778;2.710;2023-02-10T09:55:48;103518.25;;;11.80;100.00
54308;BME280;40208;39.778;2.710;2023-02-10T09:58:48;103524.41;;;11.95;100.00
54308;BME280;40208;39.778;2.710;2023-02-10T10:01:38;103523.50;;;11.99;100.00
54308;BME280;40208;39.778;2.710;2023-02-10T10:04:24;103514.44;;;12.24;100.00
54308;BME280;40208;39.778;2.710;2023-02-10T10:07:20;103524.97;;;12.34;100.00
54308;BME280;40208;39.778;2.710;2023-02-10T10:13:14;103515.69;;;12.78;100.00
54308;BME280;40208;39.778;2.710;2023-02-10T10:30:47;103518.53;;;12.61;100.00
54308;BME280;40208;39.778;2.710;2023-02-10T10:33:36;103519.50;;;12.52;100.00
54308;BME280;40208;39.778;2.710;2023-02-10T10:36:29;103525.72;;;12.48;100.00
54308;BME280;40208;39.778;2.710;2023-02-10T10:39:33;103519.63;;;12.37;100.00
54308;BME280;40208;39.778;2.710;2023-02-10T10:42:20;103521.44;;;12.33;100.00
54308;BME280;40208;39.778;2.710;2023-02-10T10:45:11;103528.63;;;12.25;100.00
54308;BME280;40208;39.778;2.710;2023-02-10T10:48:01;103531.38;;;12.13;100.00
54308;BME280;40208;39.778;2.710;2023-02-10T10:50:50;103528.72;;;12.13;100.00
54308;BME280;40208;39.778;2.710;2023-02-10T10:53:48;103528.75;;;12.06;100.00
54308;BME280;40208;39.778;2.710;2023-02-10T10:59:34;103542.16;;;11.83;100.00
54308;BME280;40208;39.778;2.710;2023-02-10T11:02:25;103536.06;;;11.67;100.00
54308;BME280;40208;39.778;2.710;2023-02-10T11:05:13;103535.22;;;11.58;100.00
54308;BME280;40208;39.778;2.710;2023-02-10T11:07:58;103528.13;;;11.55;100.00
54308;BME280;40208;39.778;2.710;2023-02-10T11:10:48;103526.44;;;11.39;100.00
54308;BME280;40208;39.778;2.710;2023-02-10T11:13:33;103528.25;;;11.32;100.00
54308;BME280;40208;39.778;2.710;2023-02-10T11:16:20;103527.41;;;11.24;100.00
54308;BME280;40208;39.778;2.710;2023-02-10T11:19:05;103525.63;;;11.20;100.00
54308;BME280;40208;39.778;2.710;2023-02-10T11:21:50;103518.53;;;11.23;100.00
54308;BME280;40208;39.778;2.710;2023-02-10T11:24:34;103509.66;;;11.24;100.00
54308;BME280;40208;39.778;2.710;2023-02-10T11:27:19;103505.22;;;11.27;100.00
54308;BME280;40208;39.778;2.710;2023-02-10T11:30:04;103503.38;;;11.45;100.00
54308;BME280;40208;39.778;2.710;2023-02-10T11:32:49;103501.44;;;11.74;100.00
54308;BME280;40208;39.778;2.710;2023-02-10T11:35:33;103498.72;;;11.87;100.00
54308;BME280;40208;39.778;2.710;2023-02-10T11:38:23;103491.47;;;12.08;100.00
54308;BME280;40208;39.778;2.710;2023-02-10T11:41:08;103483.41;;;12.17;100.00
54308;BME280;40208;39.778;2.710;2023-02-10T11:43:53;103480.69;;;12.23;100.00
54308;BME280;40208;39.778;2.710;2023-02-10T11:46:38;103482.44;;;12.27;100.00
54308;BME280;40208;39.778;2.710;2023-02-10T11:49:22;103482.34;;;12.34;100.00
54308;BME280;40208;39.778;2.710;2023-02-10T11:52:08;103472.50;;;12.45;100.00
54308;BME280;40208;39.778;2.710;2023-02-10T11:54:52;103467.22;;;12.42;100.00
54308;BME280;40208;39.778;2.710;2023-02-10T11:57:58;103476.06;;;12.41;100.00
54308;BME280;40208;39.778;2.710;2023-02-10T12:01:08;103471.75;;;12.30;100.00
54308;BME280;40208;39.778;2.710;2023-02-10T12:12:23;103469.28;;;12.11;100.00
54308;BME280;40208;39.778;2.710;2023-02-10T12:24:15;103467.50;;;12.13;100.00
54308;BME280;40208;39.778;2.710;2023-02-10T12:30:08;103473.66;;;12.16;100.00
54308;BME280;40208;39.778;2.710;2023-02-10T12:36:21;103471.97;;;12.06;100.00
54308;BME280;40208;39.778;2.710;2023-02-10T12:39:14;103475.50;;;12.08;100.00
54308;BME280;40208;39.778;2.710;2023-02-10T13:00:29;103462.44;;;11.70;100.00
54308;BME280;40208;39.778;2.710;2023-02-10T13:03:22;103460.72;;;11.62;100.00
54308;BME280;40208;39.778;2.710;2023-02-10T13:09:30;103453.69;;;11.52;100.00
54308;BME280;40208;39.778;2.710;2023-02-10T13:12:29;103459.00;;;11.52;100.00
54308;BME280;40208;39.778;2.710;2023-02-10T13:18:21;103448.34;;;11.55;100.00
54308;BME280;40208;39.778;2.710;2023-02-10T13:21:09;103441.28;;;11.50;100.00
54308;BME280;40208;39.778;2.710;2023-02-10T13:24:00;103443.97;;;11.43;100.00
54308;BME280;40208;39.778;2.710;2023-02-10T13:26:50;103434.31;;;11.35;100.00
54308;BME280;40208;39.778;2.710;2023-02-10T13:29:46;103445.75;;;11.44;100.00
54308;BME280;40208;39.778;2.710;2023-02-10T13:35:26;103436.00;;;11.43;100.00
54308;BME280;40208;39.778;2.710;2023-02-10T13:38:14;103436.09;;;11.34;100.00
54308;BME280;40208;39.778;2.710;2023-02-10T13:40:59;103428.09;;;11.31;100.00
54308;BME280;40208;39.778;2.710;2023-02-10T13:44:03;103424.56;;;11.29;100.00
54308;BME280;40208;39.778;2.710;2023-02-10T13:46:52;103416.50;;;11.44;100.00
54308;BME280;40208;39.778;2.710;2023-02-10T13:52:34;103418.41;;;11.27;100.00
54308;BME280;40208;39.778;2.710;2023-02-10T14:00:52;103417.44;;;11.37;100.00
54308;BME280;40208;39.778;2.710;2023-02-10T14:03:37;103421.00;;;11.33;100.00
54308;BME280;40208;39.778;2.710;2023-02-10T14:06:31;103422.78;;;11.33;100.00
54308;BME280;40208;39.778;2.710;2023-02-10T14:12:23;103427.13;;;11.48;100.00
54308;BME280;40208;39.778;2.710;2023-02-10T14:15:22;103414.78;;;11.36;100.00
54308;BME280;40208;39.778;2.710;2023-02-10T14:18:24;103420.06;;;11.39;100.00
54308;BME280;40208;39.778;2.710;2023-02-10T14:21:11;103414.69;;;11.48;100.00
54308;BME280;40208;39.778;2.710;2023-02-10T14:23:56;103408.56;;;11.40;100.00
54308;BME280;40208;39.778;2.710;2023-02-10T14:26:43;103413.03;;;11.35;100.00
54308;BME280;40208;39.778;2.710;2023-02-10T14:29:32;103415.66;;;11.36;100.00
54308;BME280;40208;39.778;2.710;2023-02-10T14:32:17;103416.56;;;11.37;100.00
54308;BME280;40208;39.778;2.710;2023-02-10T14:35:03;103420.91;;;11.45;100.00
54308;BME280;40208;39.778;2.710;2023-02-10T14:37:54;103420.06;;;11.42;100.00
54308;BME280;40208;39.778;2.710;2023-02-10T14:40:39;103427.16;;;11.43;100.00
54308;BME280;40208;39.778;2.710;2023-02-10T14:43:25;103429.78;;;11.48;100.00
54308;BME280;40208;39.778;2.710;2023-02-10T14:46:16;103432.50;;;11.41;100.00
54308;BME280;40208;39.778;2.710;2023-02-10T14:49:08;103420.94;;;11.42;100.00
54308;BME280;40208;39.778;2.710;2023-02-10T14:51:54;103427.97;;;11.53;100.00
54308;BME280;40208;39.778;2.710;2023-02-10T14:54:39;103423.50;;;11.61;100.00
54308;BME280;40208;39.778;2.710;2023-02-10T14:57:25;103422.50;;;11.74;100.00
54308;BME280;40208;39.778;2.710;2023-02-10T15:00:11;103417.97;;;11.85;100.00
54308;BME280;40208;39.778;2.710;2023-02-10T15:02:58;103405.47;;;12.01;100.00
54308;BME280;40208;39.778;2.710;2023-02-10T15:05:44;103408.09;;;12.06;100.00
54308;BME280;40208;39.778;2.710;2023-02-10T15:11:33;103408.84;;;12.19;100.00
54308;BME280;40208;39.778;2.710;2023-02-10T15:17:44;103409.63;;;12.32;100.00
54308;BME280;40208;39.778;2.710;2023-02-10T15:20:31;103404.28;;;12.32;100.00
54308;BME280;40208;39.778;2.710;2023-02-10T15:23:17;103404.25;;;12.35;100.00
54308;BME280;40208;39.778;2.710;2023-02-10T15:29:07;103404.13;;;12.47;100.00
54308;BME280;40208;39.778;2.710;2023-02-10T15:31:56;103402.31;;;12.47;100.00
54308;BME280;40208;39.778;2.710;2023-02-10T15:34:41;103413.84;;;12.49;100.00
54308;BME280;40208;39.778;2.710;2023-02-10T15:37:26;103413.03;;;12.44;100.00
54308;BME280;40208;39.778;2.710;2023-02-10T15:40:20;103419.22;;;12.45;100.00
54308;BME280;40208;39.778;2.710;2023-02-10T15:43:28;103416.66;;;12.39;100.00
54308;BME280;40208;39.778;2.710;2023-02-10T15:46:17;103413.94;;;12.43;100.00
54308;BME280;40208;39.778;2.710;2023-02-10T15:49:06;103419.22;;;12.46;100.00
54308;BME280;40208;39.778;2.710;2023-02-10T15:51:53;103420.06;;;12.50;100.00
54308;BME280;40208;39.778;2.710;2023-02-10T15:54:38;103419.25;;;12.42;100.00
54308;BME280;40208;39.778;2.710;2023-02-10T15:57:23;103418.38;;;12.41;100.00
54308;BME280;40208;39.778;2.710;2023-02-10T16:00:19;103418.44;;;12.37;100.00
54308;BME280;40208;39.778;2.710;2023-02-10T16:03:05;103418.41;;;12.40;100.00
54308;BME280;40208;39.778;2.710;2023-02-10T16:05:53;103410.44;;;12.35;100.00
54308;BME280;40208;39.778;2.710;2023-02-10T16:08:44;103410.44;;;12.35;100.00
54308;BME280;40208;39.778;2.710;2023-02-10T16:11:29;103406.03;;;12.33;100.00
54308;BME280;40208;39.778;2.710;2023-02-10T16:14:14;103409.63;;;12.32;100.00
54308;BME280;40208;39.778;2.710;2023-02-10T16:16:58;103418.44;;;12.34;100.00
54308;BME280;40208;39.778;2.710;2023-02-10T16:19:43;103410.50;;;12.32;100.00
54308;BME280;40208;39.778;2.710;2023-02-10T16:22:28;103414.03;;;12.31;100.00
54308;BME280;40208;39.778;2.710;2023-02-10T16:25:13;103417.66;;;12.27;100.00
54308;BME280;40208;39.778;2.710;2023-02-10T16:27:58;103410.59;;;12.23;100.00